createdAt,value
2023-01-25T00:01:41.563Z,1.00
2023-01-25T00:04:08.128Z,1.00
2023-01-25T00:06:34.640Z,0.90
2023-01-25T00:09:01.216Z,0.90
2023-01-25T00:11:27.827Z,0.80
2023-01-25T00:13:54.857Z,0.90
2023-01-25T00:16:21.713Z,0.90
2023-01-25T00:18:48.653Z,0.90
2023-01-25T00:21:20.129Z,1.00
2023-01-25T00:23:46.772Z,0.90
2023-01-25T00:26:13.358Z,1.00
2023-01-25T00:28:39.909Z,0.90
2023-01-25T00:31:07.301Z,1.00
2023-01-25T00:33:49.376Z,1.00
2023-01-25T00:36:27.242Z,1.00
2023-01-25T00:38:54.251Z,1.00
2023-01-25T00:41:20.847Z,1.00
2023-01-25T00:43:47.475Z,0.90
2023-01-25T00:46:17.645Z,0.90
2023-01-25T00:48:44.528Z,0.90
2023-01-25T00:51:11.545Z,0.90
2023-01-25T00:53:38.101Z,0.80
2023-01-25T00:56:04.811Z,0.80
2023-01-25T00:58:31.640Z,0.80
2023-01-25T01:00:58.184Z,0.80
2023-01-25T01:03:24.734Z,0.80
2023-01-25T01:06:02.722Z,0.80
2023-01-25T01:08:29.603Z,0.80
2023-01-25T01:11:00.687Z,0.90
2023-01-25T01:13:28.159Z,0.90
2023-01-25T01:15:55.348Z,0.90
2023-01-25T01:18:22.234Z,0.90
2023-01-25T01:20:49.793Z,0.90
2023-01-25T01:23:16.337Z,0.90
2023-01-25T01:25:42.943Z,0.90
2023-01-25T01:28:09.457Z,0.90
2023-01-25T01:30:36.290Z,0.90
2023-01-25T01:33:02.918Z,0.90
2023-01-25T01:35:30.082Z,0.90
2023-01-25T01:37:56.599Z,0.90
2023-01-25T01:40:24.874Z,0.90
2023-01-25T01:43:01.885Z,0.90
2023-01-25T01:45:43.980Z,0.90
2023-01-25T01:48:29.399Z,1.00
2023-01-25T01:50:58.509Z,1.00
2023-01-25T01:53:25.918Z,1.00
2023-01-25T01:55:54.625Z,1.10
2023-01-25T01:58:21.541Z,1.00
2023-01-25T02:00:48.237Z,1.00
2023-01-25T02:03:16.809Z,0.90
2023-01-25T02:05:55.588Z,0.90
2023-01-25T02:08:22.905Z,0.90
2023-01-25T02:10:50.071Z,0.90
2023-01-25T02:13:17.340Z,1.10
2023-01-25T02:15:48.070Z,1.00
2023-01-25T02:18:14.775Z,1.00
2023-01-25T02:20:50.161Z,1.00
2023-01-25T02:23:35.477Z,1.00
2023-01-25T02:26:03.934Z,1.00
2023-01-25T02:28:33.442Z,1.00
2023-01-25T02:30:59.996Z,1.00
2023-01-25T02:33:27.320Z,1.00
2023-01-25T02:35:57.355Z,1.00
2023-01-25T02:38:23.924Z,1.00
2023-01-25T02:40:53.823Z,0.90
2023-01-25T02:43:20.598Z,1.00
2023-01-25T02:45:49.435Z,1.00
2023-01-25T02:48:15.967Z,1.00
2023-01-25T02:50:42.494Z,1.00
2023-01-25T02:53:09.129Z,1.00
2023-01-25T02:55:35.628Z,1.10
2023-01-25T02:58:02.161Z,1.10
2023-01-25T03:00:28.651Z,1.00
2023-01-25T03:02:55.373Z,1.00
2023-01-25T03:05:21.985Z,1.00
2023-01-25T03:07:48.567Z,1.00
2023-01-25T03:10:15.162Z,1.00
2023-01-25T03:12:41.728Z,1.00
2023-01-25T03:15:08.995Z,1.00
2023-01-25T03:17:35.744Z,1.00
2023-01-25T03:20:02.259Z,1.00
2023-01-25T03:22:28.756Z,0.90
2023-01-25T03:24:57.196Z,1.00
2023-01-25T03:27:23.832Z,0.90
2023-01-25T03:29:50.390Z,1.00
2023-01-25T03:32:16.918Z,1.00
2023-01-25T03:34:43.470Z,1.00
2023-01-25T03:37:10.092Z,1.00
2023-01-25T03:39:36.591Z,1.10
2023-01-25T03:42:03.276Z,1.20
2023-01-25T03:44:29.782Z,1.20
2023-01-25T03:46:56.380Z,1.20
2023-01-25T03:49:22.993Z,1.20
2023-01-25T03:51:49.570Z,1.20
2023-01-25T03:54:16.118Z,1.30
2023-01-25T03:56:42.692Z,1.20
2023-01-25T03:59:10.358Z,1.10
2023-01-25T04:01:36.990Z,1.10
2023-01-25T04:04:03.577Z,1.00
2023-01-25T04:06:30.197Z,1.10
2023-01-25T04:08:56.710Z,1.20
2023-01-25T04:11:23.297Z,1.20
2023-01-25T04:13:49.784Z,1.20
2023-01-25T04:16:16.372Z,1.10
2023-01-25T04:18:42.893Z,1.20
2023-01-25T04:21:09.393Z,1.20
2023-01-25T04:23:35.904Z,1.20
2023-01-25T04:26:06.500Z,1.10
2023-01-25T04:28:33.770Z,1.20
2023-01-25T04:31:00.478Z,1.20
2023-01-25T04:33:27.326Z,1.20
2023-01-25T04:35:53.838Z,1.20
2023-01-25T04:38:20.390Z,1.10
2023-01-25T04:40:47.159Z,1.10
2023-01-25T04:43:14.732Z,1.10
2023-01-25T04:45:41.275Z,1.10
2023-01-25T04:48:09.880Z,1.10
2023-01-25T04:50:36.877Z,1.10
2023-01-25T04:53:03.648Z,1.20
2023-01-25T04:55:32.164Z,1.20
2023-01-25T04:58:00.562Z,1.20
2023-01-25T05:00:28.027Z,1.20
2023-01-25T05:02:54.757Z,1.20
2023-01-25T05:05:21.268Z,1.20
2023-01-25T05:07:47.769Z,1.20
2023-01-25T05:10:14.351Z,1.20
2023-01-25T05:12:41.022Z,1.20
2023-01-25T05:15:08.018Z,1.20
2023-01-25T05:17:34.664Z,1.30
2023-01-25T05:20:01.418Z,1.30
2023-01-25T05:22:27.992Z,1.40
2023-01-25T05:24:54.522Z,1.40
2023-01-25T05:27:21.640Z,1.40
2023-01-25T05:29:48.133Z,1.40
2023-01-25T05:32:18.987Z,1.50
2023-01-25T05:34:45.505Z,1.60
2023-01-25T05:37:13.212Z,1.50
2023-01-25T05:39:39.723Z,1.40
2023-01-25T05:42:13.520Z,1.40
2023-01-25T05:44:40.282Z,1.40
2023-01-25T05:47:07.304Z,1.30
2023-01-25T05:49:33.811Z,1.20
2023-01-25T05:52:00.339Z,1.20
2023-01-25T05:54:26.851Z,1.20
2023-01-25T05:56:53.379Z,1.20
2023-01-25T05:59:19.886Z,1.10
2023-01-25T06:01:46.971Z,1.10
2023-01-25T06:04:14.781Z,1.20
2023-01-25T06:06:41.408Z,1.20
2023-01-25T06:09:07.968Z,1.20
2023-01-25T06:11:34.498Z,1.20
2023-01-25T06:14:01.015Z,1.30
2023-01-25T06:16:27.694Z,1.30
2023-01-25T06:18:54.250Z,1.30
2023-01-25T06:21:21.013Z,1.30
2023-01-25T06:23:47.643Z,1.30
2023-01-25T06:26:15.062Z,1.30
2023-01-25T06:28:41.560Z,1.30
2023-01-25T06:31:13.237Z,1.20
2023-01-25T06:33:40.531Z,1.30
2023-01-25T06:36:08.295Z,1.30
2023-01-25T06:38:34.879Z,1.30
2023-01-25T06:41:06.027Z,1.20
2023-01-25T06:43:33.254Z,1.10
2023-01-25T06:46:03.540Z,1.10
2023-01-25T06:48:30.940Z,1.30
2023-01-25T06:50:58.787Z,1.40
2023-01-25T06:53:26.528Z,1.30
2023-01-25T06:56:00.281Z,1.30
2023-01-25T06:58:27.648Z,1.10
2023-01-25T07:00:54.711Z,1.10
2023-01-25T07:03:21.202Z,1.10
2023-01-25T07:05:49.434Z,1.10
2023-01-25T07:08:16.165Z,1.10
2023-01-25T07:10:42.702Z,1.20
2023-01-25T07:13:09.194Z,1.20
2023-01-25T07:15:35.701Z,1.20
2023-01-25T07:18:15.371Z,1.10
2023-01-25T07:20:44.337Z,1.00
2023-01-25T07:23:10.877Z,1.10
2023-01-25T07:25:37.408Z,1.20
2023-01-25T07:28:04.017Z,1.20
2023-01-25T07:30:30.529Z,1.30
2023-01-25T07:32:59.109Z,1.20
2023-01-25T07:35:25.735Z,1.30
2023-01-25T07:37:52.269Z,1.30
2023-01-25T07:40:18.801Z,1.30
2023-01-25T07:42:45.308Z,1.30
2023-01-25T07:45:12.198Z,1.30
2023-01-25T07:47:38.852Z,1.40
2023-01-25T07:50:05.572Z,1.40
2023-01-25T07:52:32.194Z,1.40
2023-01-25T07:54:59.509Z,1.40
2023-01-25T07:57:26.042Z,1.40
2023-01-25T07:59:52.598Z,1.30
2023-01-25T08:02:19.138Z,1.30
2023-01-25T08:04:45.645Z,1.30
2023-01-25T08:07:12.685Z,1.40
2023-01-25T08:09:39.589Z,1.50
2023-01-25T08:12:08.527Z,1.40
2023-01-25T08:14:35.200Z,1.50
2023-01-25T08:17:01.974Z,1.60
2023-01-25T08:19:28.586Z,1.50
2023-01-25T08:21:55.091Z,1.50
2023-01-25T08:24:23.358Z,1.60
2023-01-25T08:26:51.020Z,1.60
2023-01-25T08:29:17.840Z,1.60
2023-01-25T08:31:45.185Z,1.60
2023-01-25T08:34:12.016Z,1.60
2023-01-25T08:36:38.534Z,1.70
2023-01-25T08:39:06.539Z,1.70
2023-01-25T08:41:33.790Z,1.60
2023-01-25T08:44:00.376Z,1.60
2023-01-25T08:46:30.353Z,1.70
2023-01-25T08:48:59.088Z,1.70
2023-01-25T08:51:25.847Z,1.80
2023-01-25T08:53:52.456Z,1.90
2023-01-25T08:56:19.016Z,2.00
2023-01-25T08:58:46.386Z,2.00
2023-01-25T09:01:14.060Z,2.00
2023-01-25T09:03:42.140Z,1.90
2023-01-25T09:06:09.136Z,2.00
2023-01-25T09:08:35.785Z,2.00
2023-01-25T09:11:03.366Z,2.00
2023-01-25T09:13:29.992Z,2.20
2023-01-25T09:16:03.696Z,2.20
2023-01-25T09:18:30.692Z,2.20
2023-01-25T09:20:57.210Z,2.20
2023-01-25T09:23:24.115Z,2.20
2023-01-25T09:25:58.342Z,2.20
2023-01-25T09:28:25.519Z,2.10
2023-01-25T09:31:14.660Z,2.10
2023-01-25T09:33:42.625Z,2.10
2023-01-25T09:36:12.232Z,2.30
2023-01-25T09:38:38.954Z,2.20
2023-01-25T09:41:21.760Z,2.20
2023-01-25T09:44:14.638Z,2.20
2023-01-25T09:46:44.197Z,2.30
2023-01-25T09:49:35.831Z,2.40
2023-01-25T09:52:20.466Z,2.50
2023-01-25T09:54:47.591Z,2.50
2023-01-25T09:57:16.228Z,2.50
2023-01-25T09:59:43.885Z,2.40
2023-01-25T10:02:18.732Z,2.40
2023-01-25T10:04:45.815Z,2.60
2023-01-25T10:07:21.214Z,2.60
2023-01-25T10:09:51.125Z,2.50
2023-01-25T10:12:22.022Z,2.40
2023-01-25T10:14:48.656Z,2.40
2023-01-25T10:17:32.201Z,2.20
2023-01-25T10:20:17.762Z,2.20
2023-01-25T10:22:51.250Z,2.30
2023-01-25T10:25:38.865Z,2.50
2023-01-25T10:28:18.552Z,2.50
2023-01-25T10:31:00.802Z,2.40
2023-01-25T10:33:28.286Z,2.50
2023-01-25T10:35:55.420Z,2.60
2023-01-25T10:38:28.156Z,2.60
2023-01-25T10:40:58.109Z,2.70
2023-01-25T10:43:24.603Z,2.70
2023-01-25T10:45:51.447Z,2.70
2023-01-25T10:48:20.270Z,2.70
2023-01-25T10:50:54.323Z,2.70
2023-01-25T10:53:26.719Z,2.70
2023-01-25T10:56:01.130Z,2.70
2023-01-25T10:58:32.166Z,2.80
2023-01-25T11:00:59.648Z,2.80
2023-01-25T11:03:33.556Z,2.80
2023-01-25T11:06:00.209Z,2.70
2023-01-25T11:08:32.653Z,2.70
2023-01-25T11:10:59.602Z,2.80
2023-01-25T11:13:29.903Z,2.90
2023-01-25T11:16:04.913Z,3.00
2023-01-25T11:18:34.838Z,2.90
2023-01-25T11:21:05.376Z,2.80
2023-01-25T11:23:32.340Z,2.80
2023-01-25T11:26:16.308Z,2.80
2023-01-25T11:28:44.516Z,2.90
2023-01-25T11:31:15.067Z,2.90
2023-01-25T11:33:41.959Z,3.00
2023-01-25T11:36:27.748Z,2.70
2023-01-25T11:39:19.254Z,2.70
2023-01-25T11:41:54.184Z,2.60
2023-01-25T11:44:46.019Z,2.60
2023-01-25T11:47:32.220Z,2.60
2023-01-25T11:50:08.177Z,2.50
2023-01-25T11:52:56.397Z,2.50
2023-01-25T11:55:26.029Z,2.60
2023-01-25T11:57:55.542Z,2.60
2023-01-25T12:00:30.027Z,2.60
2023-01-25T12:03:22.724Z,2.60
2023-01-25T12:05:55.465Z,2.60
2023-01-25T12:08:33.004Z,2.50
2023-01-25T12:11:18.160Z,2.40
2023-01-25T12:13:48.223Z,2.40
2023-01-25T12:16:19.532Z,2.40
2023-01-25T12:19:07.646Z,2.30
2023-01-25T12:21:57.048Z,2.30
2023-01-25T12:24:49.623Z,2.40
2023-01-25T12:27:38.358Z,2.40
2023-01-25T12:30:11.257Z,2.40
2023-01-25T12:32:40.417Z,2.40
2023-01-25T12:35:16.782Z,2.40
2023-01-25T12:37:45.109Z,2.40
2023-01-25T12:40:13.792Z,2.40
2023-01-25T12:42:43.976Z,2.40
2023-01-25T12:45:14.196Z,2.40
2023-01-25T12:47:43.075Z,2.30
2023-01-25T12:50:15.734Z,2.40
2023-01-25T12:52:46.984Z,2.40
2023-01-25T12:55:14.375Z,2.40
2023-01-25T12:57:50.852Z,2.60
2023-01-25T13:00:40.545Z,2.60
2023-01-25T13:03:21.514Z,2.60
2023-01-25T13:05:51.460Z,2.60
2023-01-25T13:08:41.498Z,2.80
2023-01-25T13:11:23.817Z,2.80
2023-01-25T13:13:50.458Z,2.80
2023-01-25T13:16:23.084Z,2.70
2023-01-25T13:18:49.764Z,2.60
2023-01-25T13:21:38.882Z,2.60
2023-01-25T13:24:24.314Z,2.60
2023-01-25T13:26:53.885Z,2.70
2023-01-25T13:29:32.291Z,2.60
2023-01-25T13:31:59.849Z,2.50
2023-01-25T13:34:35.663Z,2.40
2023-01-25T13:39:54.180Z,2.50
2023-01-25T13:42:22.674Z,2.40
2023-01-25T13:44:51.948Z,2.50
2023-01-25T13:47:21.172Z,2.60
2023-01-25T13:49:57.266Z,2.70
2023-01-25T13:52:24.595Z,2.60
2023-01-25T13:54:53.780Z,2.60
2023-01-25T13:57:21.973Z,2.30
2023-01-25T13:59:50.800Z,2.20
2023-01-25T14:02:20.453Z,2.30
2023-01-25T14:04:48.327Z,2.20
2023-01-25T14:07:16.822Z,2.10
2023-01-25T14:09:44.168Z,2.00
2023-01-25T14:12:11.208Z,2.10
2023-01-25T14:14:37.972Z,2.10
2023-01-25T14:17:14.090Z,2.10
2023-01-25T14:19:41.378Z,2.30
2023-01-25T14:22:27.389Z,2.40
2023-01-25T14:25:09.575Z,2.30
2023-01-25T14:27:42.152Z,2.30
2023-01-25T14:30:20.134Z,2.30
2023-01-25T14:32:46.931Z,2.30
2023-01-25T14:35:35.982Z,2.40
2023-01-25T14:38:20.972Z,2.40
2023-01-25T14:40:48.370Z,2.30
2023-01-25T14:43:15.759Z,2.30
2023-01-25T14:45:42.409Z,2.30
2023-01-25T14:48:27.792Z,2.20
2023-01-25T14:51:02.218Z,2.40
2023-01-25T14:53:28.737Z,2.30
2023-01-25T14:55:55.224Z,2.20
2023-01-25T14:58:23.713Z,2.20
2023-01-25T15:00:54.000Z,2.10
2023-01-25T15:03:22.461Z,2.10
2023-01-25T15:05:49.071Z,2.10
2023-01-25T15:08:25.177Z,2.10
2023-01-25T15:11:18.709Z,2.10
2023-01-25T15:13:45.267Z,2.10
2023-01-25T15:16:14.136Z,2.10
2023-01-25T15:18:45.250Z,2.10
2023-01-25T15:21:13.627Z,2.10
2023-01-25T15:23:42.197Z,2.10
2023-01-25T15:26:17.945Z,2.10
2023-01-25T15:28:44.453Z,2.10
2023-01-25T15:31:22.222Z,2.10
2023-01-25T15:33:49.007Z,2.00
2023-01-25T15:36:16.071Z,2.00
2023-01-25T15:38:42.948Z,2.00
2023-01-25T15:41:10.340Z,2.10
2023-01-25T15:43:36.942Z,2.00
2023-01-25T15:46:04.187Z,1.90
2023-01-25T15:48:33.147Z,2.00
2023-01-25T15:50:59.905Z,1.90
2023-01-25T15:53:26.495Z,1.90
2023-01-25T15:55:54.764Z,1.90
2023-01-25T15:58:47.376Z,1.90
2023-01-25T16:01:14.112Z,1.90
2023-01-25T16:03:41.577Z,1.90
2023-01-25T16:06:13.895Z,1.80
2023-01-25T16:08:40.395Z,1.90
2023-01-25T16:11:06.904Z,2.00
2023-01-25T16:13:33.531Z,1.90
2023-01-25T16:16:00.117Z,1.90
2023-01-25T16:18:26.609Z,1.90
2023-01-25T16:20:53.188Z,1.90
2023-01-25T16:23:19.725Z,1.90
2023-01-25T16:25:47.918Z,1.90
2023-01-25T16:28:20.331Z,1.90
2023-01-25T16:30:47.030Z,1.80
2023-01-25T16:33:13.633Z,1.80
2023-01-25T16:35:40.198Z,1.80
2023-01-25T16:38:06.748Z,1.80
2023-01-25T16:40:38.470Z,1.80
2023-01-25T16:43:05.846Z,1.80
2023-01-25T16:45:32.480Z,1.80
2023-01-25T16:47:59.021Z,1.80
2023-01-25T16:50:25.553Z,1.80
2023-01-25T16:52:54.303Z,1.80
2023-01-25T16:55:21.970Z,1.80
2023-01-25T16:57:50.975Z,1.80
2023-01-25T17:00:17.719Z,1.70
2023-01-25T17:02:58.191Z,1.70
2023-01-25T17:05:27.827Z,1.80
2023-01-25T17:07:59.868Z,1.80
2023-01-25T17:10:26.454Z,1.80
2023-01-25T17:12:53.067Z,1.70
2023-01-25T17:15:20.493Z,1.80
2023-01-25T17:17:47.069Z,1.80
2023-01-25T17:20:13.861Z,1.80
2023-01-25T17:22:41.869Z,1.80
2023-01-25T17:25:08.575Z,1.80
2023-01-25T17:27:39.758Z,1.80
2023-01-25T17:30:09.364Z,1.80
2023-01-25T17:32:36.065Z,1.70
2023-01-25T17:35:02.613Z,1.70
2023-01-25T17:37:29.180Z,1.70
2023-01-25T17:39:55.741Z,1.80
2023-01-25T17:42:39.232Z,1.70
2023-01-25T17:45:11.760Z,1.70
2023-01-25T17:47:38.514Z,1.70
2023-01-25T17:50:05.206Z,1.70
2023-01-25T17:52:31.721Z,1.70
2023-01-25T17:55:01.448Z,1.60
2023-01-25T17:57:31.514Z,1.60
2023-01-25T18:00:12.600Z,1.60
2023-01-25T18:02:46.901Z,1.60
2023-01-25T18:05:15.456Z,1.60
2023-01-25T18:07:42.488Z,1.70
2023-01-25T18:10:09.531Z,1.70
2023-01-25T18:12:39.836Z,1.70
2023-01-25T18:15:09.652Z,1.70
2023-01-25T18:17:38.652Z,1.60
2023-01-25T18:20:05.886Z,1.60
2023-01-25T18:22:32.878Z,1.70
2023-01-25T18:25:00.114Z,1.70
2023-01-25T18:27:30.019Z,1.70
2023-01-25T18:30:43.465Z,1.60
2023-01-25T18:33:10.118Z,1.60
2023-01-25T18:35:38.830Z,1.60
2023-01-25T18:38:05.376Z,1.60
2023-01-25T18:40:31.914Z,1.60
2023-01-25T18:42:58.630Z,1.70
2023-01-25T18:45:25.169Z,1.70
2023-01-25T18:47:51.755Z,1.60
2023-01-25T18:50:21.301Z,1.60
2023-01-25T18:52:48.158Z,1.70
2023-01-25T18:55:15.114Z,1.60
2023-01-25T18:57:41.656Z,1.60
2023-01-25T19:00:10.962Z,1.50
2023-01-25T19:02:37.937Z,1.50
2023-01-25T19:05:07.132Z,1.60
2023-01-25T19:07:35.135Z,1.50
2023-01-25T19:10:01.985Z,1.70
2023-01-25T19:12:30.845Z,1.80
2023-01-25T19:15:06.308Z,1.70
2023-01-25T19:17:32.818Z,1.70
2023-01-25T19:20:00.707Z,1.70
2023-01-25T19:22:27.386Z,1.60
2023-01-25T19:24:54.043Z,1.60
2023-01-25T19:27:20.564Z,1.60
2023-01-25T19:29:47.146Z,1.60
2023-01-25T19:32:13.823Z,1.60
2023-01-25T19:34:40.359Z,1.60
2023-01-25T19:37:06.998Z,1.60
2023-01-25T19:39:33.574Z,1.60
2023-01-25T19:42:00.113Z,1.60
2023-01-25T19:44:26.720Z,1.60
2023-01-25T19:46:53.246Z,1.60
2023-01-25T19:49:19.972Z,1.60
2023-01-25T19:51:52.750Z,1.60
2023-01-25T19:54:19.338Z,1.70
2023-01-25T19:56:46.870Z,1.60
2023-01-25T19:59:14.939Z,1.60
2023-01-25T20:01:43.922Z,1.60
2023-01-25T20:04:11.529Z,1.50
2023-01-25T20:06:42.833Z,1.60
2023-01-25T20:09:13.538Z,1.60
2023-01-25T20:11:43.480Z,1.60
2023-01-25T20:14:17.145Z,1.60
2023-01-25T20:16:43.767Z,1.50
2023-01-25T20:19:14.732Z,1.50
2023-01-25T20:21:43.736Z,1.50
2023-01-25T20:24:10.525Z,1.50
2023-01-25T20:26:45.136Z,1.50
2023-01-25T20:29:16.369Z,1.50
2023-01-25T20:31:43.977Z,1.50
2023-01-25T20:34:12.038Z,1.50
2023-01-25T20:36:38.926Z,1.60
2023-01-25T20:39:06.322Z,1.60
2023-01-25T20:41:33.077Z,1.60
2023-01-25T20:44:12.586Z,1.60
2023-01-25T20:46:40.206Z,1.60
2023-01-25T20:49:07.989Z,1.50
2023-01-25T20:51:35.150Z,1.50
2023-01-25T20:54:01.900Z,1.50
2023-01-25T20:56:31.755Z,1.50
2023-01-25T20:58:58.736Z,1.50
2023-01-25T21:01:31.669Z,1.60
2023-01-25T21:04:02.639Z,1.70
2023-01-25T21:06:39.090Z,1.60
2023-01-25T21:09:07.472Z,1.70
2023-01-25T21:11:36.509Z,1.70
2023-01-25T21:14:03.273Z,1.60
2023-01-25T21:16:30.319Z,1.60
2023-01-25T21:18:58.041Z,1.60
2023-01-25T21:21:27.713Z,1.60
2023-01-25T21:23:56.855Z,1.60
2023-01-25T21:26:24.686Z,1.60
2023-01-25T21:28:52.077Z,1.60
2023-01-25T21:31:30.776Z,1.60
2023-01-25T21:33:57.390Z,1.50
2023-01-25T21:36:24.845Z,1.50
2023-01-25T21:38:52.246Z,1.50
2023-01-25T21:41:20.228Z,1.60
2023-01-25T21:44:05.716Z,1.60
2023-01-25T21:46:32.721Z,1.60
2023-01-25T21:49:18.997Z,1.60
2023-01-25T21:51:52.311Z,1.60
2023-01-25T21:54:23.211Z,1.60
2023-01-25T21:56:51.160Z,1.60
2023-01-25T21:59:18.038Z,1.60
2023-01-25T22:01:44.919Z,1.60
2023-01-25T22:04:12.238Z,1.70
2023-01-25T22:06:39.161Z,1.60
2023-01-25T22:09:05.789Z,1.60
2023-01-25T22:11:32.351Z,1.60
2023-01-25T22:13:59.076Z,1.60
2023-01-25T22:16:26.213Z,1.60
2023-01-25T22:18:52.824Z,1.50
2023-01-25T22:21:20.597Z,1.50
2023-01-25T22:23:47.959Z,1.50
2023-01-25T22:26:14.466Z,1.50
2023-01-25T22:28:44.997Z,1.50
2023-01-25T22:31:12.204Z,1.50
2023-01-25T22:33:38.727Z,1.50
2023-01-25T22:36:05.389Z,1.50
2023-01-25T22:38:31.926Z,1.50
2023-01-25T22:41:12.397Z,1.50
2023-01-25T22:43:39.165Z,1.40
2023-01-25T22:46:07.223Z,1.30
2023-01-25T22:48:34.371Z,1.40
2023-01-25T22:51:04.858Z,1.40
2023-01-25T22:53:31.865Z,1.50
2023-01-25T22:56:02.122Z,1.40
2023-01-25T22:58:29.055Z,1.40
2023-01-25T23:00:56.312Z,1.40
2023-01-25T23:03:22.998Z,1.50
2023-01-25T23:05:57.749Z,1.40
2023-01-25T23:08:24.376Z,1.40
2023-01-25T23:10:50.895Z,1.40
2023-01-25T23:13:17.385Z,1.50
2023-01-25T23:15:43.948Z,1.40
2023-01-25T23:18:29.257Z,1.40
2023-01-25T23:20:55.798Z,1.40
2023-01-25T23:23:22.308Z,1.40
2023-01-25T23:25:49.262Z,1.40
2023-01-25T23:28:15.777Z,1.50
2023-01-25T23:30:42.298Z,1.50
2023-01-25T23:33:08.799Z,1.50
2023-01-25T23:35:35.346Z,1.40
2023-01-25T23:38:01.901Z,1.40
2023-01-25T23:40:28.422Z,1.30
2023-01-25T23:42:54.917Z,1.30
2023-01-25T23:45:22.255Z,1.30
2023-01-25T23:47:48.816Z,1.30
2023-01-25T23:50:15.366Z,1.30
2023-01-25T23:52:41.933Z,1.30
2023-01-25T23:55:09.015Z,1.30
2023-01-25T23:57:35.594Z,1.40
